createdAt,value
2022-09-16T00:00:21.611Z,74442.72
2022-09-16T00:02:48.704Z,74438.59
2022-09-16T00:05:15.769Z,74450.94
2022-09-16T00:07:43.043Z,74442.72
2022-09-16T00:10:10.276Z,74434.50
2022-09-16T00:12:38.850Z,74430.38
2022-09-16T00:15:07.018Z,74430.38
2022-09-16T00:17:34.844Z,74438.59
2022-09-16T00:20:02.424Z,74438.59
2022-09-16T00:22:29.775Z,74426.28
2022-09-16T00:24:57.266Z,74438.59
2022-09-16T00:27:24.379Z,74436.53
2022-09-16T00:29:51.487Z,74438.59
2022-09-16T00:32:18.584Z,74430.38
2022-09-16T00:34:45.687Z,74434.50
2022-09-16T00:37:12.786Z,74438.59
2022-09-16T00:39:39.826Z,74438.59
2022-09-16T00:42:07.103Z,74442.72
2022-09-16T00:45:11.931Z,74440.66
2022-09-16T00:47:42.243Z,74428.31
2022-09-16T00:50:23.496Z,74434.50
2022-09-16T00:52:50.639Z,74430.38
2022-09-16T00:55:18.977Z,74422.16
2022-09-16T00:57:46.049Z,74418.06
2022-09-16T01:00:14.005Z,74422.16
2022-09-16T01:02:42.322Z,74418.06
2022-09-16T01:05:12.302Z,74413.94
2022-09-16T01:07:44.408Z,74413.94
2022-09-16T01:10:12.825Z,74413.94
2022-09-16T01:12:42.551Z,74422.16
2022-09-16T01:15:10.959Z,74420.09
2022-09-16T01:17:50.480Z,74420.09
2022-09-16T01:20:25.032Z,74424.22
2022-09-16T01:22:52.077Z,74422.16
2022-09-16T01:25:38.222Z,74426.28
2022-09-16T01:28:16.185Z,74418.06
2022-09-16T01:30:44.368Z,74426.28
2022-09-16T01:33:16.647Z,74422.16
2022-09-16T01:35:47.242Z,74430.38
2022-09-16T01:38:22.933Z,74442.72
2022-09-16T01:40:50.896Z,74438.59
2022-09-16T01:43:19.215Z,74438.59
2022-09-16T01:45:51.945Z,74442.72
2022-09-16T01:48:28.261Z,74442.72
2022-09-16T01:51:01.497Z,74438.59
2022-09-16T01:53:38.825Z,74438.59
2022-09-16T01:56:09.524Z,74442.72
2022-09-16T01:58:36.633Z,74430.38
2022-09-16T02:01:05.945Z,74424.22
2022-09-16T02:03:34.285Z,74418.06
2022-09-16T02:06:10.967Z,74422.16
2022-09-16T02:08:39.982Z,74422.16
2022-09-16T02:11:08.094Z,74428.31
2022-09-16T02:13:39.807Z,74426.28
2022-09-16T02:16:10.455Z,74436.53
2022-09-16T02:18:39.925Z,74434.50
2022-09-16T02:21:07.267Z,74446.81
2022-09-16T02:23:36.881Z,74459.16
2022-09-16T02:26:03.965Z,74459.16
2022-09-16T02:28:33.169Z,74463.25
2022-09-16T02:31:01.666Z,74459.16
2022-09-16T02:33:33.651Z,74459.16
2022-09-16T02:36:00.684Z,74452.97
2022-09-16T02:38:30.547Z,74455.03
2022-09-16T02:40:58.245Z,74461.19
2022-09-16T02:43:25.961Z,74459.16
2022-09-16T02:46:06.364Z,74463.25
2022-09-16T02:48:36.464Z,74463.25
2022-09-16T02:51:23.545Z,74479.69
2022-09-16T02:53:58.498Z,74487.91
2022-09-16T02:56:31.728Z,74483.78
2022-09-16T02:58:58.767Z,74479.69
2022-09-16T03:01:25.981Z,74485.84
2022-09-16T03:03:54.535Z,74500.22
2022-09-16T03:06:22.481Z,74504.34
2022-09-16T03:08:49.597Z,74496.13
2022-09-16T03:11:32.301Z,74508.44
2022-09-16T03:14:22.555Z,74520.78
2022-09-16T03:17:03.453Z,74524.88
2022-09-16T03:19:33.430Z,74518.72
2022-09-16T03:22:06.569Z,74524.88
2022-09-16T03:24:51.107Z,74531.03
2022-09-16T03:27:23.331Z,74529.00
2022-09-16T03:29:55.502Z,74524.88
2022-09-16T03:32:23.229Z,74520.78
2022-09-16T03:35:10.625Z,74524.88
2022-09-16T03:37:37.758Z,74529.00
2022-09-16T03:40:06.243Z,74529.00
2022-09-16T03:42:34.025Z,74524.88
2022-09-16T03:45:01.138Z,74533.09
2022-09-16T03:47:28.225Z,74529.00
2022-09-16T03:49:55.382Z,74520.78
2022-09-16T03:52:22.622Z,74520.78
2022-09-16T03:54:49.646Z,74526.94
2022-09-16T03:57:16.950Z,74518.72
2022-09-16T03:59:44.284Z,74529.00
2022-09-16T04:02:11.403Z,74529.00
2022-09-16T04:04:38.511Z,74529.00
2022-09-16T04:07:05.590Z,74533.09
2022-09-16T04:09:32.829Z,74535.16
2022-09-16T04:11:59.932Z,74539.25
2022-09-16T04:14:27.911Z,74543.38
2022-09-16T04:16:55.137Z,74537.22
2022-09-16T04:19:23.153Z,74537.22
2022-09-16T04:21:50.372Z,74537.22
2022-09-16T04:24:17.589Z,74531.03
2022-09-16T04:26:46.383Z,74524.88
2022-09-16T04:29:13.665Z,74518.72
2022-09-16T04:31:40.881Z,74516.66
2022-09-16T04:34:08.733Z,74510.50
2022-09-16T04:36:35.768Z,74516.66
2022-09-16T04:39:02.816Z,74512.56
2022-09-16T04:41:29.910Z,74514.63
2022-09-16T04:43:57.482Z,74510.50
2022-09-16T04:46:25.100Z,74500.22
2022-09-16T04:48:52.640Z,74487.91
2022-09-16T04:51:19.969Z,74479.69
2022-09-16T04:53:47.631Z,74475.56
2022-09-16T04:56:18.603Z,74463.25
2022-09-16T04:58:46.538Z,74455.03
2022-09-16T05:01:14.780Z,74448.88
2022-09-16T05:03:42.278Z,74442.72
2022-09-16T05:06:18.380Z,74440.66
2022-09-16T05:08:47.893Z,74442.72
2022-09-16T05:11:16.212Z,74438.59
2022-09-16T05:13:43.399Z,74430.38
2022-09-16T05:16:11.515Z,74430.38
2022-09-16T05:18:39.053Z,74403.66
2022-09-16T05:21:06.985Z,74381.06
2022-09-16T05:23:34.180Z,74350.25
2022-09-16T05:26:05.320Z,74319.44
2022-09-16T05:28:32.767Z,74296.84
2022-09-16T05:31:15.237Z,74286.56
2022-09-16T05:33:44.738Z,74272.19
2022-09-16T05:36:12.990Z,74253.72
2022-09-16T05:38:40.030Z,74249.59
2022-09-16T05:41:07.145Z,74257.81
2022-09-16T05:43:35.005Z,74245.50
2022-09-16T05:46:02.215Z,74249.59
2022-09-16T05:48:29.366Z,74235.22
2022-09-16T05:50:57.794Z,74224.94
2022-09-16T05:53:25.664Z,74257.81
2022-09-16T05:55:59.553Z,74259.88
2022-09-16T05:58:27.281Z,74270.16
2022-09-16T06:01:01.076Z,74255.75
2022-09-16T06:03:28.329Z,74218.78
2022-09-16T06:06:14.193Z,74187.97
2022-09-16T06:08:41.636Z,74173.59
2022-09-16T06:11:09.272Z,74169.47
2022-09-16T06:13:36.980Z,74173.59
2022-09-16T06:16:04.951Z,74163.31
2022-09-16T06:18:33.308Z,74159.22
2022-09-16T06:21:03.014Z,74140.72
2022-09-16T06:23:30.149Z,74114.03
2022-09-16T06:26:00.751Z,74085.25
2022-09-16T06:28:27.835Z,74035.97
2022-09-16T06:31:04.765Z,74003.09
2022-09-16T06:33:32.369Z,73999.00
2022-09-16T06:36:02.429Z,73970.22
2022-09-16T06:38:29.548Z,73974.34
2022-09-16T06:41:03.404Z,73953.78
2022-09-16T06:43:30.646Z,73933.25
2022-09-16T06:46:10.265Z,73916.81
2022-09-16T06:48:37.484Z,73951.75
2022-09-16T06:51:04.965Z,73953.78
2022-09-16T06:53:32.107Z,73949.69
2022-09-16T06:56:03.145Z,73937.38
2022-09-16T06:58:33.788Z,73945.59
2022-09-16T07:01:11.039Z,73978.44
2022-09-16T07:03:38.681Z,73966.13
2022-09-16T07:06:05.958Z,73999.00
2022-09-16T07:08:33.362Z,74013.38
2022-09-16T07:11:02.006Z,74027.75
2022-09-16T07:13:29.239Z,74027.75
2022-09-16T07:16:12.737Z,74015.41
2022-09-16T07:18:41.227Z,74011.31
2022-09-16T07:21:12.159Z,73994.88
2022-09-16T07:23:39.367Z,73978.44
2022-09-16T07:26:10.331Z,73957.91
2022-09-16T07:28:37.796Z,73916.81
2022-09-16T07:31:08.687Z,73883.97
2022-09-16T07:33:37.232Z,73851.09
2022-09-16T07:36:05.321Z,73830.56
2022-09-16T07:38:33.245Z,73773.03
2022-09-16T07:41:14.130Z,73768.94
2022-09-16T07:43:41.961Z,73826.44
2022-09-16T07:46:10.530Z,73851.09
2022-09-16T07:48:37.762Z,73836.72
2022-09-16T07:51:08.642Z,73832.59
2022-09-16T07:53:35.874Z,73830.56
2022-09-16T07:56:03.823Z,73830.56
2022-09-16T07:58:30.905Z,73818.22
2022-09-16T08:01:04.010Z,73814.13
2022-09-16T08:03:32.478Z,73814.13
2022-09-16T08:06:06.912Z,73799.75
2022-09-16T08:08:35.770Z,73789.47
2022-09-16T08:11:02.954Z,73801.78
2022-09-16T08:13:31.933Z,73764.81
2022-09-16T08:16:04.054Z,73715.53
2022-09-16T08:18:31.728Z,73653.91
2022-09-16T08:20:59.577Z,73662.13
2022-09-16T08:23:26.783Z,73727.84
2022-09-16T08:25:58.510Z,73703.22
2022-09-16T08:28:25.559Z,73690.88
2022-09-16T08:30:53.366Z,73662.13
2022-09-16T08:33:23.101Z,73621.06
2022-09-16T08:35:59.689Z,73604.63
2022-09-16T08:38:26.825Z,73526.56
2022-09-16T08:41:06.837Z,73501.94
2022-09-16T08:43:45.707Z,73553.28
2022-09-16T08:46:18.458Z,73586.13
2022-09-16T08:49:07.464Z,73616.94
2022-09-16T08:51:34.640Z,73633.38
2022-09-16T08:54:25.030Z,73670.34
2022-09-16T08:56:53.448Z,73688.81
2022-09-16T08:59:22.013Z,73707.31
2022-09-16T09:01:50.423Z,73727.84
2022-09-16T09:04:17.707Z,73736.06
2022-09-16T09:06:57.950Z,73736.06
2022-09-16T09:09:31.461Z,73731.97
2022-09-16T09:11:58.507Z,73721.69
2022-09-16T09:14:26.488Z,73699.09
2022-09-16T09:17:13.039Z,73707.31
2022-09-16T09:20:05.764Z,73707.31
2022-09-16T09:22:52.002Z,73711.41
2022-09-16T09:25:25.075Z,73731.97
2022-09-16T09:27:55.070Z,73748.38
2022-09-16T09:30:25.675Z,73746.34
2022-09-16T09:33:34.545Z,73744.28
2022-09-16T09:36:03.235Z,73731.97
2022-09-16T09:38:49.473Z,73725.81
2022-09-16T09:41:16.577Z,73727.84
2022-09-16T09:43:49.818Z,73731.97
2022-09-16T09:46:20.408Z,73748.38
2022-09-16T09:48:52.063Z,73744.28
2022-09-16T09:51:27.836Z,73731.97
2022-09-16T09:53:56.968Z,73731.97
2022-09-16T09:56:25.420Z,73703.22
2022-09-16T09:59:11.280Z,73695.00
2022-09-16T10:01:38.557Z,73697.03
2022-09-16T10:04:11.062Z,73682.66
2022-09-16T10:06:38.717Z,73670.34
2022-09-16T10:09:06.055Z,73649.81
2022-09-16T10:11:34.423Z,73643.63
2022-09-16T10:14:02.240Z,73655.97
2022-09-16T10:16:31.505Z,73649.81
2022-09-16T10:19:03.703Z,73637.47
2022-09-16T10:21:46.167Z,73614.88
2022-09-16T10:24:30.444Z,73590.25
2022-09-16T10:26:58.038Z,73555.31
2022-09-16T10:29:25.324Z,73487.56
2022-09-16T10:31:52.522Z,73399.22
2022-09-16T10:34:19.913Z,73239.03
2022-09-16T10:36:47.047Z,73234.94
2022-09-16T10:39:21.725Z,73193.88
2022-09-16T10:41:48.943Z,73276.00
2022-09-16T10:44:36.672Z,73243.16
2022-09-16T10:47:09.383Z,73290.38
2022-09-16T10:49:46.477Z,73210.28
2022-09-16T10:52:15.609Z,73296.53
2022-09-16T10:54:42.739Z,73407.44
2022-09-16T10:57:31.793Z,73489.59
2022-09-16T11:00:10.902Z,73471.13
2022-09-16T11:02:50.422Z,73510.13
2022-09-16T11:05:29.757Z,73551.22
2022-09-16T11:07:56.835Z,73575.88
2022-09-16T11:10:35.878Z,73586.13
2022-09-16T11:13:03.061Z,73647.75
2022-09-16T11:15:37.185Z,73678.56
2022-09-16T11:18:20.637Z,73760.72
2022-09-16T11:20:47.690Z,73719.63
2022-09-16T11:23:24.210Z,73699.09
2022-09-16T11:26:00.628Z,73740.19
2022-09-16T11:28:40.610Z,73736.06
2022-09-16T11:31:20.971Z,73703.22
2022-09-16T11:34:23.692Z,73713.47
2022-09-16T11:37:06.111Z,73750.44
2022-09-16T11:39:39.073Z,73744.28
2022-09-16T11:42:16.827Z,73744.28
2022-09-16T11:44:44.104Z,73740.19
2022-09-16T11:47:23.252Z,73752.50
2022-09-16T11:50:05.296Z,73756.59
2022-09-16T11:52:32.517Z,73752.50
2022-09-16T11:55:03.936Z,73768.94
2022-09-16T11:57:32.695Z,73785.38
2022-09-16T12:00:00.931Z,73836.72
2022-09-16T12:02:39.765Z,73826.44
2022-09-16T12:05:11.966Z,73801.78
2022-09-16T12:07:45.734Z,73801.78
2022-09-16T12:10:14.801Z,73826.44
2022-09-16T12:12:44.391Z,73807.97
2022-09-16T12:15:16.819Z,73803.84
2022-09-16T12:17:46.293Z,73727.84
2022-09-16T12:20:21.229Z,73643.63
2022-09-16T12:22:49.410Z,73711.41
2022-09-16T12:25:22.570Z,73731.97
2022-09-16T12:27:52.538Z,73748.38
2022-09-16T12:30:19.718Z,73731.97
2022-09-16T12:33:06.301Z,73748.38
2022-09-16T12:35:34.608Z,73731.97
2022-09-16T12:38:02.104Z,73625.16
2022-09-16T12:40:32.393Z,73510.13
2022-09-16T12:43:03.216Z,73516.31
2022-09-16T12:45:48.744Z,73479.34
2022-09-16T12:48:34.492Z,73600.50
2022-09-16T12:51:01.549Z,73699.09
2022-09-16T12:53:49.386Z,73740.19
2022-09-16T12:56:16.731Z,73752.50
2022-09-16T12:59:02.699Z,73752.50
2022-09-16T13:01:31.477Z,73775.09
2022-09-16T13:04:04.011Z,73787.41
2022-09-16T13:06:33.271Z,73812.06
2022-09-16T13:09:21.202Z,73826.44
2022-09-16T13:14:46.073Z,73851.09
2022-09-16T13:17:13.772Z,73855.19
2022-09-16T13:20:02.407Z,73777.16
2022-09-16T13:22:36.009Z,73559.44
2022-09-16T13:25:18.937Z,73514.25
2022-09-16T13:28:12.312Z,73645.69
2022-09-16T13:30:39.854Z,73699.09
2022-09-16T13:33:10.036Z,73715.53
2022-09-16T13:35:38.640Z,73545.06
2022-09-16T13:38:21.523Z,73444.41
2022-09-16T13:40:55.858Z,73354.06
2022-09-16T13:43:55.409Z,73321.19
2022-09-16T13:46:28.411Z,73333.50
2022-09-16T13:48:55.695Z,73393.06
2022-09-16T13:51:22.798Z,73364.31
2022-09-16T13:53:50.707Z,73399.22
2022-09-16T13:56:17.737Z,73506.03
2022-09-16T13:58:57.964Z,73639.53
2022-09-16T14:01:42.185Z,73660.06
2022-09-16T14:04:27.998Z,73526.56
2022-09-16T14:07:04.735Z,73341.72
2022-09-16T14:09:54.784Z,73347.88
2022-09-16T14:12:31.325Z,73339.69
2022-09-16T14:14:59.012Z,73296.53
2022-09-16T14:17:27.710Z,73267.78
2022-09-16T14:19:57.396Z,73237.00
2022-09-16T14:22:27.145Z,73415.66
2022-09-16T14:25:05.828Z,73592.28
2022-09-16T14:27:40.522Z,73674.44
2022-09-16T14:30:14.951Z,73781.25
2022-09-16T14:32:41.978Z,73771.00
2022-09-16T14:35:09.980Z,73849.03
2022-09-16T14:37:37.516Z,73896.28
2022-09-16T14:40:07.230Z,73933.25
2022-09-16T14:42:34.379Z,73949.69
2022-09-16T14:45:01.507Z,73964.06
2022-09-16T14:47:47.439Z,73974.34
2022-09-16T14:50:19.521Z,73992.81
2022-09-16T14:52:56.761Z,74027.75
2022-09-16T14:55:25.272Z,74044.19
2022-09-16T14:57:52.423Z,74091.41
2022-09-16T15:00:20.026Z,74089.38
2022-09-16T15:02:49.962Z,74109.91
2022-09-16T15:05:24.443Z,74114.03
2022-09-16T15:08:12.654Z,74118.13
2022-09-16T15:10:53.226Z,74130.44
2022-09-16T15:13:21.849Z,74126.34
2022-09-16T15:15:49.773Z,74126.34
2022-09-16T15:18:28.528Z,74120.19
2022-09-16T15:21:04.709Z,74148.94
2022-09-16T15:23:31.836Z,74157.16
2022-09-16T15:25:59.832Z,74167.44
2022-09-16T15:28:26.908Z,74159.22
2022-09-16T15:30:55.362Z,74138.66
2022-09-16T15:33:29.968Z,74130.44
2022-09-16T15:36:01.816Z,74146.88
2022-09-16T15:38:28.913Z,74200.28
2022-09-16T15:41:06.025Z,74190.03
2022-09-16T15:43:38.311Z,74220.84
2022-09-16T15:46:25.899Z,74237.28
2022-09-16T15:48:57.327Z,74247.53
2022-09-16T15:51:29.256Z,74266.03
2022-09-16T15:53:58.087Z,74261.94
2022-09-16T15:56:26.642Z,74266.03
2022-09-16T15:59:01.629Z,74263.97
2022-09-16T16:01:35.625Z,74266.03
2022-09-16T16:04:03.185Z,74280.41
2022-09-16T16:06:45.869Z,74274.25
2022-09-16T16:09:28.833Z,74253.72
2022-09-16T16:12:00.036Z,74286.56
2022-09-16T16:14:30.887Z,74315.34
2022-09-16T16:17:13.268Z,74331.78
2022-09-16T16:19:42.192Z,74360.53
2022-09-16T16:22:09.810Z,74364.63
2022-09-16T16:24:37.400Z,74383.13
2022-09-16T16:27:04.600Z,74356.44
2022-09-16T16:29:32.089Z,74368.75
2022-09-16T16:32:01.977Z,74385.19
2022-09-16T16:34:31.402Z,74397.50
2022-09-16T16:36:58.584Z,74409.84
2022-09-16T16:39:25.726Z,74401.63
2022-09-16T16:41:55.438Z,74422.16
2022-09-16T16:44:22.813Z,74438.59
2022-09-16T16:46:53.721Z,74448.88
2022-09-16T16:49:21.135Z,74436.53
2022-09-16T16:51:48.827Z,74446.81
2022-09-16T16:54:16.120Z,74461.19
2022-09-16T16:56:43.230Z,74487.91
2022-09-16T16:59:10.273Z,74489.97
2022-09-16T17:01:37.786Z,74512.56
2022-09-16T17:04:06.109Z,74514.63
2022-09-16T17:06:34.816Z,74522.84
2022-09-16T17:09:01.980Z,74524.88
2022-09-16T17:11:30.164Z,74551.59
2022-09-16T17:13:58.797Z,74545.44
2022-09-16T17:16:26.056Z,74545.44
2022-09-16T17:18:53.217Z,74551.59
2022-09-16T17:21:21.179Z,74565.97
2022-09-16T17:23:49.019Z,74539.25
2022-09-16T17:26:16.185Z,74557.75
2022-09-16T17:28:43.941Z,74553.66
2022-09-16T17:31:11.643Z,74557.75
2022-09-16T17:33:38.960Z,74537.22
2022-09-16T17:36:06.937Z,74520.78
2022-09-16T17:38:34.439Z,74512.56
2022-09-16T17:41:08.504Z,74516.66
2022-09-16T17:43:35.904Z,74524.88
2022-09-16T17:46:03.625Z,74533.09
2022-09-16T17:48:31.857Z,74524.88
2022-09-16T17:50:59.102Z,74529.00
2022-09-16T17:53:26.210Z,74529.00
2022-09-16T17:55:53.231Z,74541.31
2022-09-16T17:58:20.557Z,74545.44
2022-09-16T18:00:47.584Z,74557.75
2022-09-16T18:03:14.695Z,74582.41
2022-09-16T18:05:41.762Z,74590.63
2022-09-16T18:08:09.068Z,74602.94
2022-09-16T18:10:36.375Z,74607.06
2022-09-16T18:13:05.028Z,74607.06
2022-09-16T18:15:32.079Z,74615.28
2022-09-16T18:17:59.610Z,74637.88
2022-09-16T18:20:26.640Z,74633.78
2022-09-16T18:22:54.418Z,74639.94
2022-09-16T18:25:21.440Z,74639.94
2022-09-16T18:27:49.389Z,74633.78
2022-09-16T18:30:16.741Z,74639.94
2022-09-16T18:32:43.806Z,74672.81
2022-09-16T18:35:12.623Z,74676.91
2022-09-16T18:37:39.742Z,74672.81
2022-09-16T18:40:07.235Z,74681.03
2022-09-16T18:42:34.463Z,74681.03
2022-09-16T18:45:01.639Z,74681.03
2022-09-16T18:47:28.730Z,74689.25
2022-09-16T18:49:55.842Z,74689.25
2022-09-16T18:52:23.073Z,74681.03
2022-09-16T18:54:50.263Z,74685.13
2022-09-16T18:57:17.709Z,74685.13
2022-09-16T18:59:44.860Z,74693.34
2022-09-16T19:02:13.478Z,74701.56
2022-09-16T19:04:41.326Z,74695.41
2022-09-16T19:07:09.576Z,74695.41
2022-09-16T19:09:37.480Z,74699.50
2022-09-16T19:12:04.915Z,74705.69
2022-09-16T19:14:33.085Z,74707.72
2022-09-16T19:17:00.353Z,74722.13
2022-09-16T19:19:27.747Z,74726.22
2022-09-16T19:21:55.328Z,74726.22
2022-09-16T19:24:23.083Z,74724.16
2022-09-16T19:26:52.012Z,74734.44
2022-09-16T19:29:19.299Z,74742.66
2022-09-16T19:31:46.828Z,74759.09
2022-09-16T19:34:14.523Z,74759.09
2022-09-16T19:36:41.698Z,74775.53
2022-09-16T19:39:08.822Z,74775.53
2022-09-16T19:41:36.583Z,74779.66
2022-09-16T19:44:04.573Z,74787.88
2022-09-16T19:46:33.173Z,74796.09
2022-09-16T19:49:00.294Z,74800.19
2022-09-16T19:51:29.216Z,74796.09
2022-09-16T19:53:56.437Z,74800.19
2022-09-16T19:56:28.190Z,74800.19
2022-09-16T19:58:55.278Z,74802.25
2022-09-16T20:01:23.305Z,74804.31
2022-09-16T20:03:50.706Z,74804.31
2022-09-16T20:06:19.105Z,74806.34
2022-09-16T20:08:47.988Z,74812.53
2022-09-16T20:11:17.038Z,74820.75
2022-09-16T20:13:50.850Z,74833.06
2022-09-16T20:16:18.261Z,74833.06
2022-09-16T20:18:46.073Z,74831.00
2022-09-16T20:21:14.755Z,74839.22
2022-09-16T20:23:41.961Z,74845.38
2022-09-16T20:26:09.308Z,74841.28
2022-09-16T20:28:37.842Z,74839.22
2022-09-16T20:31:05.230Z,74845.38
2022-09-16T20:33:33.481Z,74851.56
2022-09-16T20:36:04.424Z,74847.44
2022-09-16T20:38:31.483Z,74845.38
2022-09-16T20:41:03.445Z,74849.50
2022-09-16T20:43:31.110Z,74855.66
2022-09-16T20:46:03.184Z,74849.50
2022-09-16T20:48:30.642Z,74845.38
2022-09-16T20:50:57.716Z,74837.16
2022-09-16T20:53:24.776Z,74837.16
2022-09-16T20:55:52.045Z,74837.16
2022-09-16T20:58:19.157Z,74845.38
2022-09-16T21:00:46.367Z,74847.44
2022-09-16T21:03:15.047Z,74845.38
2022-09-16T21:05:42.209Z,74841.28
2022-09-16T21:08:09.276Z,74843.34
2022-09-16T21:10:38.460Z,74845.38
2022-09-16T21:13:06.559Z,74853.59
2022-09-16T21:15:33.999Z,74855.66
2022-09-16T21:18:01.179Z,74839.22
2022-09-16T21:20:28.624Z,74845.38
2022-09-16T21:22:55.641Z,74853.59
2022-09-16T21:25:24.739Z,74857.72
2022-09-16T21:27:52.029Z,74870.03
2022-09-16T21:30:19.218Z,74878.25
2022-09-16T21:32:46.229Z,74884.44
2022-09-16T21:35:14.424Z,74878.25
2022-09-16T21:37:41.534Z,74890.59
2022-09-16T21:40:10.238Z,74894.69
2022-09-16T21:42:37.360Z,74907.03
2022-09-16T21:45:04.707Z,74907.03
2022-09-16T21:47:32.121Z,74900.88
2022-09-16T21:50:00.890Z,74900.88
2022-09-16T21:52:27.927Z,74904.97
2022-09-16T21:54:54.934Z,74896.75
2022-09-16T21:57:22.222Z,74890.59
2022-09-16T21:59:49.266Z,74896.75
2022-09-16T22:02:16.482Z,74890.59
2022-09-16T22:04:43.524Z,74894.69
2022-09-16T22:07:12.341Z,74900.88
2022-09-16T22:09:39.416Z,74907.03
2022-09-16T22:12:08.456Z,74907.03
2022-09-16T22:14:35.491Z,74902.91
2022-09-16T22:17:02.574Z,74907.03
2022-09-16T22:19:29.650Z,74915.25
2022-09-16T22:21:56.682Z,74919.34
2022-09-16T22:24:23.751Z,74927.56
2022-09-16T22:26:51.010Z,74931.69
2022-09-16T22:29:18.194Z,74933.75
2022-09-16T22:31:45.320Z,74935.78
2022-09-16T22:34:12.492Z,74927.56
2022-09-16T22:36:42.013Z,74935.78
2022-09-16T22:39:13.165Z,74937.84
2022-09-16T22:41:40.184Z,74931.69
2022-09-16T22:44:07.244Z,74944.00
2022-09-16T22:46:39.036Z,74939.91
2022-09-16T22:49:06.347Z,74939.91
2022-09-16T22:51:33.477Z,74939.91
2022-09-16T22:54:05.164Z,74931.69
2022-09-16T22:56:33.468Z,74935.78
2022-09-16T22:59:01.320Z,74939.91
2022-09-16T23:01:31.954Z,74939.91
2022-09-16T23:03:59.731Z,74944.00
2022-09-16T23:06:27.292Z,74944.00
2022-09-16T23:08:54.461Z,74948.13
2022-09-16T23:11:23.563Z,74956.34
2022-09-16T23:13:52.763Z,74952.22
2022-09-16T23:16:21.138Z,74956.34
2022-09-16T23:18:49.109Z,74962.50
2022-09-16T23:21:17.904Z,74966.63
2022-09-16T23:23:45.900Z,74956.34
2022-09-16T23:26:13.891Z,74964.56
2022-09-16T23:28:40.952Z,74956.34
2022-09-16T23:31:08.996Z,74956.34
2022-09-16T23:33:36.381Z,74954.28
2022-09-16T23:36:03.601Z,74954.28
2022-09-16T23:38:30.902Z,74954.28
2022-09-16T23:41:03.112Z,74962.50
2022-09-16T23:43:30.520Z,74956.34
2022-09-16T23:45:57.592Z,74958.41
2022-09-16T23:48:24.785Z,74962.50
2022-09-16T23:50:51.788Z,74968.66
2022-09-16T23:53:18.817Z,74968.66
2022-09-16T23:55:45.832Z,74976.88
2022-09-16T23:58:13.614Z,74987.16
